sensor_id;sensor_type;location;lat;lon;timestamp;temperature;humidity
23301;DHT22;11819;51.394;12.340;2022-11-13T00:00:36;7.20;84.00
23301;DHT22;11819;51.394;12.340;2022-11-13T00:03:21;7.20;84.00
23301;DHT22;11819;51.394;12.340;2022-11-13T00:06:05;7.20;83.80
23301;DHT22;11819;51.394;12.340;2022-11-13T00:08:52;7.10;83.70
23301;DHT22;11819;51.394;12.340;2022-11-13T00:11:37;7.10;83.70
23301;DHT22;11819;51.394;12.340;2022-11-13T00:14:22;7.10;83.70
23301;DHT22;11819;51.394;12.340;2022-11-13T00:17:07;7.10;83.60
23301;DHT22;11819;51.394;12.340;2022-11-13T00:19:51;7.00;83.60
23301;DHT22;11819;51.394;12.340;2022-11-13T00:22:36;7.00;83.70
23301;DHT22;11819;51.394;12.340;2022-11-13T00:25:20;7.00;83.70
23301;DHT22;11819;51.394;12.340;2022-11-13T00:28:04;6.90;83.70
23301;DHT22;11819;51.394;12.340;2022-11-13T00:30:48;6.90;83.70
23301;DHT22;11819;51.394;12.340;2022-11-13T00:33:32;6.90;83.70
23301;DHT22;11819;51.394;12.340;2022-11-13T00:36:20;6.80;83.60
23301;DHT22;11819;51.394;12.340;2022-11-13T00:39:05;6.80;83.70
23301;DHT22;11819;51.394;12.340;2022-11-13T00:41:49;6.80;83.90
23301;DHT22;11819;51.394;12.340;2022-11-13T00:44:33;6.80;84.10
23301;DHT22;11819;51.394;12.340;2022-11-13T00:47:17;6.80;84.10
23301;DHT22;11819;51.394;12.340;2022-11-13T00:50:01;6.80;84.20
23301;DHT22;11819;51.394;12.340;2022-11-13T00:52:47;6.80;84.20
23301;DHT22;11819;51.394;12.340;2022-11-13T00:55:31;6.80;84.10
23301;DHT22;11819;51.394;12.340;2022-11-13T00:58:16;6.80;84.10
23301;DHT22;11819;51.394;12.340;2022-11-13T01:01:09;6.80;84.10
23301;DHT22;11819;51.394;12.340;2022-11-13T01:03:54;6.70;84.10
23301;DHT22;11819;51.394;12.340;2022-11-13T01:06:38;6.80;84.30
23301;DHT22;11819;51.394;12.340;2022-11-13T01:09:22;6.80;84.30
23301;DHT22;11819;51.394;12.340;2022-11-13T01:12:08;6.70;84.20
23301;DHT22;11819;51.394;12.340;2022-11-13T01:14:52;6.70;84.30
23301;DHT22;11819;51.394;12.340;2022-11-13T01:17:36;6.70;84.40
23301;DHT22;11819;51.394;12.340;2022-11-13T01:20:22;6.70;84.40
23301;DHT22;11819;51.394;12.340;2022-11-13T01:23:07;6.70;84.40
23301;DHT22;11819;51.394;12.340;2022-11-13T01:25:52;6.60;84.30
23301;DHT22;11819;51.394;12.340;2022-11-13T01:28:36;6.60;84.30
23301;DHT22;11819;51.394;12.340;2022-11-13T01:31:23;6.60;84.30
23301;DHT22;11819;51.394;12.340;2022-11-13T01:34:08;6.50;84.30
23301;DHT22;11819;51.394;12.340;2022-11-13T01:36:52;6.50;84.20
23301;DHT22;11819;51.394;12.340;2022-11-13T01:39:36;6.40;84.10
23301;DHT22;11819;51.394;12.340;2022-11-13T01:42:20;6.40;84.20
23301;DHT22;11819;51.394;12.340;2022-11-13T01:48:37;6.40;84.30
23301;DHT22;11819;51.394;12.340;2022-11-13T01:51:38;6.40;84.10
23301;DHT22;11819;51.394;12.340;2022-11-13T01:54:26;6.30;84.00
23301;DHT22;11819;51.394;12.340;2022-11-13T01:57:11;6.30;84.10
23301;DHT22;11819;51.394;12.340;2022-11-13T01:59:58;6.30;84.10
23301;DHT22;11819;51.394;12.340;2022-11-13T02:02:43;6.30;84.10
23301;DHT22;11819;51.394;12.340;2022-11-13T02:05:27;6.30;84.00
23301;DHT22;11819;51.394;12.340;2022-11-13T02:08:11;6.20;83.90
23301;DHT22;11819;51.394;12.340;2022-11-13T02:10:56;6.20;83.80
23301;DHT22;11819;51.394;12.340;2022-11-13T02:13:40;6.20;83.70
23301;DHT22;11819;51.394;12.340;2022-11-13T02:16:26;6.10;83.40
23301;DHT22;11819;51.394;12.340;2022-11-13T02:19:25;6.00;83.40
23301;DHT22;11819;51.394;12.340;2022-11-13T02:25:01;5.90;83.40
23301;DHT22;11819;51.394;12.340;2022-11-13T02:27:48;5.80;83.50
23301;DHT22;11819;51.394;12.340;2022-11-13T02:30:34;5.80;83.60
23301;DHT22;11819;51.394;12.340;2022-11-13T02:33:30;5.80;83.60
23301;DHT22;11819;51.394;12.340;2022-11-13T02:36:15;5.80;83.60
23301;DHT22;11819;51.394;12.340;2022-11-13T02:39:03;5.70;83.50
23301;DHT22;11819;51.394;12.340;2022-11-13T02:41:48;5.70;83.70
23301;DHT22;11819;51.394;12.340;2022-11-13T02:44:32;5.70;83.70
23301;DHT22;11819;51.394;12.340;2022-11-13T02:47:16;5.70;83.80
23301;DHT22;11819;51.394;12.340;2022-11-13T02:50:00;5.70;83.80
23301;DHT22;11819;51.394;12.340;2022-11-13T02:52:44;5.70;84.70
23301;DHT22;11819;51.394;12.340;2022-11-13T02:55:29;5.70;84.00
23301;DHT22;11819;51.394;12.340;2022-11-13T02:58:13;5.70;83.80
23301;DHT22;11819;51.394;12.340;2022-11-13T03:01:00;5.70;83.70
23301;DHT22;11819;51.394;12.340;2022-11-13T03:03:46;5.70;83.50
23301;DHT22;11819;51.394;12.340;2022-11-13T03:06:30;5.60;83.30
23301;DHT22;11819;51.394;12.340;2022-11-13T03:09:14;5.60;83.40
23301;DHT22;11819;51.394;12.340;2022-11-13T03:11:58;5.50;83.30
23301;DHT22;11819;51.394;12.340;2022-11-13T03:14:42;5.50;83.40
23301;DHT22;11819;51.394;12.340;2022-11-13T03:17:26;5.50;83.50
23301;DHT22;11819;51.394;12.340;2022-11-13T03:20:10;5.40;83.40
23301;DHT22;11819;51.394;12.340;2022-11-13T03:22:54;5.40;83.50
23301;DHT22;11819;51.394;12.340;2022-11-13T03:25:38;5.40;83.70
23301;DHT22;11819;51.394;12.340;2022-11-13T03:28:22;5.40;84.00
23301;DHT22;11819;51.394;12.340;2022-11-13T03:31:07;5.30;84.00
23301;DHT22;11819;51.394;12.340;2022-11-13T03:33:52;5.40;84.20
23301;DHT22;11819;51.394;12.340;2022-11-13T03:36:36;5.40;84.40
23301;DHT22;11819;51.394;12.340;2022-11-13T03:39:20;5.40;84.40
23301;DHT22;11819;51.394;12.340;2022-11-13T03:42:05;5.40;84.50
23301;DHT22;11819;51.394;12.340;2022-11-13T03:44:49;5.40;84.60
23301;DHT22;11819;51.394;12.340;2022-11-13T03:47:34;5.40;84.70
23301;DHT22;11819;51.394;12.340;2022-11-13T03:50:18;5.40;84.80
23301;DHT22;11819;51.394;12.340;2022-11-13T03:53:02;5.30;84.80
23301;DHT22;11819;51.394;12.340;2022-11-13T03:55:46;5.30;84.90
23301;DHT22;11819;51.394;12.340;2022-11-13T03:58:31;5.30;85.00
23301;DHT22;11819;51.394;12.340;2022-11-13T04:01:15;5.30;85.10
23301;DHT22;11819;51.394;12.340;2022-11-13T04:04:01;5.30;85.20
23301;DHT22;11819;51.394;12.340;2022-11-13T04:06:45;5.30;85.30
23301;DHT22;11819;51.394;12.340;2022-11-13T04:09:29;5.30;85.50
23301;DHT22;11819;51.394;12.340;2022-11-13T04:12:13;5.30;85.30
23301;DHT22;11819;51.394;12.340;2022-11-13T04:14:57;5.30;85.40
23301;DHT22;11819;51.394;12.340;2022-11-13T04:17:41;5.30;85.50
23301;DHT22;11819;51.394;12.340;2022-11-13T04:20:26;5.30;85.50
23301;DHT22;11819;51.394;12.340;2022-11-13T04:23:11;5.20;85.60
23301;DHT22;11819;51.394;12.340;2022-11-13T04:25:57;5.30;85.70
23301;DHT22;11819;51.394;12.340;2022-11-13T04:28:41;5.30;85.70
23301;DHT22;11819;51.394;12.340;2022-11-13T04:31:25;5.30;85.70
23301;DHT22;11819;51.394;12.340;2022-11-13T04:34:10;5.30;85.70
23301;DHT22;11819;51.394;12.340;2022-11-13T04:36:54;5.30;85.70
23301;DHT22;11819;51.394;12.340;2022-11-13T04:39:38;5.30;85.70
23301;DHT22;11819;51.394;12.340;2022-11-13T04:42:22;5.30;85.80
23301;DHT22;11819;51.394;12.340;2022-11-13T04:45:25;5.20;85.80
23301;DHT22;11819;51.394;12.340;2022-11-13T04:48:10;5.20;85.90
23301;DHT22;11819;51.394;12.340;2022-11-13T04:50:57;5.20;86.00
23301;DHT22;11819;51.394;12.340;2022-11-13T04:53:41;5.20;86.10
23301;DHT22;11819;51.394;12.340;2022-11-13T04:56:25;5.20;86.20
23301;DHT22;11819;51.394;12.340;2022-11-13T04:59:09;5.20;86.10
23301;DHT22;11819;51.394;12.340;2022-11-13T05:01:53;5.20;86.20
23301;DHT22;11819;51.394;12.340;2022-11-13T05:04:38;5.20;86.20
23301;DHT22;11819;51.394;12.340;2022-11-13T05:07:24;5.20;86.30
23301;DHT22;11819;51.394;12.340;2022-11-13T05:10:09;5.20;86.40
23301;DHT22;11819;51.394;12.340;2022-11-13T05:12:58;5.20;86.40
23301;DHT22;11819;51.394;12.340;2022-11-13T05:15:42;5.20;86.40
23301;DHT22;11819;51.394;12.340;2022-11-13T05:18:28;5.20;86.60
23301;DHT22;11819;51.394;12.340;2022-11-13T05:21:12;5.20;86.60
23301;DHT22;11819;51.394;12.340;2022-11-13T05:23:56;5.20;86.70
23301;DHT22;11819;51.394;12.340;2022-11-13T05:26:41;5.20;86.70
23301;DHT22;11819;51.394;12.340;2022-11-13T05:29:25;5.20;86.70
23301;DHT22;11819;51.394;12.340;2022-11-13T05:32:10;5.20;86.80
23301;DHT22;11819;51.394;12.340;2022-11-13T05:34:54;5.20;86.90
23301;DHT22;11819;51.394;12.340;2022-11-13T05:37:38;5.20;86.90
23301;DHT22;11819;51.394;12.340;2022-11-13T05:40:22;5.20;87.00
23301;DHT22;11819;51.394;12.340;2022-11-13T05:43:06;5.20;87.00
23301;DHT22;11819;51.394;12.340;2022-11-13T05:45:50;5.20;87.00
23301;DHT22;11819;51.394;12.340;2022-11-13T05:48:35;5.30;87.10
23301;DHT22;11819;51.394;12.340;2022-11-13T05:51:27;5.30;87.10
23301;DHT22;11819;51.394;12.340;2022-11-13T05:54:11;5.30;87.10
23301;DHT22;11819;51.394;12.340;2022-11-13T05:56:58;5.30;87.20
23301;DHT22;11819;51.394;12.340;2022-11-13T05:59:42;5.30;87.30
23301;DHT22;11819;51.394;12.340;2022-11-13T06:02:26;5.30;87.20
23301;DHT22;11819;51.394;12.340;2022-11-13T06:05:10;5.30;87.10
23301;DHT22;11819;51.394;12.340;2022-11-13T06:07:54;5.30;87.20
23301;DHT22;11819;51.394;12.340;2022-11-13T06:10:38;5.40;87.30
23301;DHT22;11819;51.394;12.340;2022-11-13T06:13:23;5.40;87.50
23301;DHT22;11819;51.394;12.340;2022-11-13T06:16:10;5.40;87.50
23301;DHT22;11819;51.394;12.340;2022-11-13T06:18:59;5.40;87.50
23301;DHT22;11819;51.394;12.340;2022-11-13T06:21:44;5.40;87.50
23301;DHT22;11819;51.394;12.340;2022-11-13T06:24:28;5.40;87.70
23301;DHT22;11819;51.394;12.340;2022-11-13T06:27:14;5.40;87.70
23301;DHT22;11819;51.394;12.340;2022-11-13T06:29:58;5.40;87.80
23301;DHT22;11819;51.394;12.340;2022-11-13T06:32:42;5.40;87.80
23301;DHT22;11819;51.394;12.340;2022-11-13T06:35:26;5.40;87.90
23301;DHT22;11819;51.394;12.340;2022-11-13T06:38:10;5.50;88.00
23301;DHT22;11819;51.394;12.340;2022-11-13T06:40:56;5.50;88.00
23301;DHT22;11819;51.394;12.340;2022-11-13T06:43:43;5.50;88.10
23301;DHT22;11819;51.394;12.340;2022-11-13T06:46:29;5.50;88.30
23301;DHT22;11819;51.394;12.340;2022-11-13T06:49:15;5.50;88.20
23301;DHT22;11819;51.394;12.340;2022-11-13T06:52:01;5.60;88.50
23301;DHT22;11819;51.394;12.340;2022-11-13T06:54:45;5.60;88.60
23301;DHT22;11819;51.394;12.340;2022-11-13T06:57:29;5.70;88.60
23301;DHT22;11819;51.394;12.340;2022-11-13T07:00:14;5.70;88.50
23301;DHT22;11819;51.394;12.340;2022-11-13T07:02:59;5.70;88.40
23301;DHT22;11819;51.394;12.340;2022-11-13T07:05:46;5.80;88.60
23301;DHT22;11819;51.394;12.340;2022-11-13T07:08:31;5.70;88.50
23301;DHT22;11819;51.394;12.340;2022-11-13T07:11:18;5.80;88.70
23301;DHT22;11819;51.394;12.340;2022-11-13T07:14:03;5.80;88.80
23301;DHT22;11819;51.394;12.340;2022-11-13T07:16:47;5.90;88.90
23301;DHT22;11819;51.394;12.340;2022-11-13T07:19:31;5.90;88.90
23301;DHT22;11819;51.394;12.340;2022-11-13T07:22:16;5.90;88.90
23301;DHT22;11819;51.394;12.340;2022-11-13T07:25:01;5.90;88.90
23301;DHT22;11819;51.394;12.340;2022-11-13T07:27:45;6.00;89.10
23301;DHT22;11819;51.394;12.340;2022-11-13T07:30:29;6.00;89.00
23301;DHT22;11819;51.394;12.340;2022-11-13T07:33:14;6.00;89.00
23301;DHT22;11819;51.394;12.340;2022-11-13T07:35:59;6.10;89.00
23301;DHT22;11819;51.394;12.340;2022-11-13T07:38:44;6.10;89.00
23301;DHT22;11819;51.394;12.340;2022-11-13T07:41:28;6.10;89.10
23301;DHT22;11819;51.394;12.340;2022-11-13T07:44:12;6.20;89.10
23301;DHT22;11819;51.394;12.340;2022-11-13T07:46:56;6.20;89.40
23301;DHT22;11819;51.394;12.340;2022-11-13T07:49:41;6.20;89.40
23301;DHT22;11819;51.394;12.340;2022-11-13T07:52:25;6.30;89.50
23301;DHT22;11819;51.394;12.340;2022-11-13T07:55:09;6.40;89.70
23301;DHT22;11819;51.394;12.340;2022-11-13T07:57:57;6.40;89.40
23301;DHT22;11819;51.394;12.340;2022-11-13T08:00:42;6.50;89.30
23301;DHT22;11819;51.394;12.340;2022-11-13T08:03:27;6.50;89.40
23301;DHT22;11819;51.394;12.340;2022-11-13T08:06:12;6.60;89.40
23301;DHT22;11819;51.394;12.340;2022-11-13T08:08:56;6.60;89.40
23301;DHT22;11819;51.394;12.340;2022-11-13T08:11:41;6.70;89.30
23301;DHT22;11819;51.394;12.340;2022-11-13T08:14:26;6.80;89.10
23301;DHT22;11819;51.394;12.340;2022-11-13T08:17:10;6.80;89.00
23301;DHT22;11819;51.394;12.340;2022-11-13T08:19:54;6.80;88.90
23301;DHT22;11819;51.394;12.340;2022-11-13T08:22:39;6.90;89.00
23301;DHT22;11819;51.394;12.340;2022-11-13T08:25:23;6.90;89.10
23301;DHT22;11819;51.394;12.340;2022-11-13T08:28:08;6.90;89.10
23301;DHT22;11819;51.394;12.340;2022-11-13T08:30:52;6.90;89.00
23301;DHT22;11819;51.394;12.340;2022-11-13T08:33:36;6.90;89.10
23301;DHT22;11819;51.394;12.340;2022-11-13T08:36:20;6.90;89.10
23301;DHT22;11819;51.394;12.340;2022-11-13T08:39:05;6.90;89.20
23301;DHT22;11819;51.394;12.340;2022-11-13T08:41:49;6.90;89.10
23301;DHT22;11819;51.394;12.340;2022-11-13T08:44:33;7.00;89.20
23301;DHT22;11819;51.394;12.340;2022-11-13T08:47:17;7.00;89.20
23301;DHT22;11819;51.394;12.340;2022-11-13T08:50:02;7.00;89.20
23301;DHT22;11819;51.394;12.340;2022-11-13T08:52:53;7.00;89.40
23301;DHT22;11819;51.394;12.340;2022-11-13T08:55:38;7.10;89.30
23301;DHT22;11819;51.394;12.340;2022-11-13T08:58:22;7.10;89.40
23301;DHT22;11819;51.394;12.340;2022-11-13T09:01:06;7.10;89.40
23301;DHT22;11819;51.394;12.340;2022-11-13T09:03:50;7.10;89.40
23301;DHT22;11819;51.394;12.340;2022-11-13T09:06:35;7.20;89.50
23301;DHT22;11819;51.394;12.340;2022-11-13T09:09:20;7.20;89.60
23301;DHT22;11819;51.394;12.340;2022-11-13T09:12:06;7.20;89.50
23301;DHT22;11819;51.394;12.340;2022-11-13T09:14:51;7.20;89.60
23301;DHT22;11819;51.394;12.340;2022-11-13T09:17:35;7.20;89.60
23301;DHT22;11819;51.394;12.340;2022-11-13T09:20:20;7.30;89.70
23301;DHT22;11819;51.394;12.340;2022-11-13T09:23:06;7.30;89.70
23301;DHT22;11819;51.394;12.340;2022-11-13T09:25:51;7.30;89.70
23301;DHT22;11819;51.394;12.340;2022-11-13T09:28:35;7.40;89.90
23301;DHT22;11819;51.394;12.340;2022-11-13T09:31:19;7.40;89.80
23301;DHT22;11819;51.394;12.340;2022-11-13T09:34:04;7.40;89.90
23301;DHT22;11819;51.394;12.340;2022-11-13T09:36:50;7.40;90.00
23301;DHT22;11819;51.394;12.340;2022-11-13T09:39:35;7.50;90.10
23301;DHT22;11819;51.394;12.340;2022-11-13T09:42:24;7.50;90.40
23301;DHT22;11819;51.394;12.340;2022-11-13T09:45:13;7.60;90.00
23301;DHT22;11819;51.394;12.340;2022-11-13T09:48:25;7.60;90.00
23301;DHT22;11819;51.394;12.340;2022-11-13T09:51:14;7.60;89.90
23301;DHT22;11819;51.394;12.340;2022-11-13T09:54:04;7.70;90.00
23301;DHT22;11819;51.394;12.340;2022-11-13T09:56:55;7.70;89.20
23301;DHT22;11819;51.394;12.340;2022-11-13T10:08:30;7.90;90.00
23301;DHT22;11819;51.394;12.340;2022-11-13T10:14:42;7.90;89.70
23301;DHT22;11819;51.394;12.340;2022-11-13T10:17:48;7.90;89.70
23301;DHT22;11819;51.394;12.340;2022-11-13T10:20:38;8.00;89.70
23301;DHT22;11819;51.394;12.340;2022-11-13T10:23:37;8.00;89.80
23301;DHT22;11819;51.394;12.340;2022-11-13T10:26:23;8.00;89.80
23301;DHT22;11819;51.394;12.340;2022-11-13T10:29:16;8.10;89.90
23301;DHT22;11819;51.394;12.340;2022-11-13T10:38:25;8.10;89.60
23301;DHT22;11819;51.394;12.340;2022-11-13T10:41:14;8.20;89.70
23301;DHT22;11819;51.394;12.340;2022-11-13T10:44:14;8.20;89.80
23301;DHT22;11819;51.394;12.340;2022-11-13T10:47:16;8.30;89.80
23301;DHT22;11819;51.394;12.340;2022-11-13T10:50:10;8.40;89.70
23301;DHT22;11819;51.394;12.340;2022-11-13T10:52:55;8.40;89.70
23301;DHT22;11819;51.394;12.340;2022-11-13T10:55:40;8.40;89.50
23301;DHT22;11819;51.394;12.340;2022-11-13T10:58:26;8.40;89.40
23301;DHT22;11819;51.394;12.340;2022-11-13T11:01:21;8.40;89.30
23301;DHT22;11819;51.394;12.340;2022-11-13T11:04:20;8.40;89.00
23301;DHT22;11819;51.394;12.340;2022-11-13T11:09:57;8.40;88.60
23301;DHT22;11819;51.394;12.340;2022-11-13T11:12:42;8.40;88.50
23301;DHT22;11819;51.394;12.340;2022-11-13T11:15:43;8.40;88.40
23301;DHT22;11819;51.394;12.340;2022-11-13T11:18:52;8.30;88.50
23301;DHT22;11819;51.394;12.340;2022-11-13T11:21:40;8.30;88.20
23301;DHT22;11819;51.394;12.340;2022-11-13T11:24:30;8.30;88.20
23301;DHT22;11819;51.394;12.340;2022-11-13T11:27:20;8.40;88.20
23301;DHT22;11819;51.394;12.340;2022-11-13T11:30:25;8.40;88.30
23301;DHT22;11819;51.394;12.340;2022-11-13T11:33:27;8.40;88.30
23301;DHT22;11819;51.394;12.340;2022-11-13T11:36:22;8.50;88.50
23301;DHT22;11819;51.394;12.340;2022-11-13T11:39:27;8.60;88.60
23301;DHT22;11819;51.394;12.340;2022-11-13T11:45:27;8.80;88.70
23301;DHT22;11819;51.394;12.340;2022-11-13T11:48:27;8.80;88.50
23301;DHT22;11819;51.394;12.340;2022-11-13T11:51:29;8.90;88.60
23301;DHT22;11819;51.394;12.340;2022-11-13T11:54:42;9.00;88.60
23301;DHT22;11819;51.394;12.340;2022-11-13T12:00:43;9.10;87.70
23301;DHT22;11819;51.394;12.340;2022-11-13T12:13:30;8.90;86.90
23301;DHT22;11819;51.394;12.340;2022-11-13T12:16:22;8.90;86.80
23301;DHT22;11819;51.394;12.340;2022-11-13T12:22:31;8.80;86.80
23301;DHT22;11819;51.394;12.340;2022-11-13T12:25:49;8.80;86.90
23301;DHT22;11819;51.394;12.340;2022-11-13T12:28:47;8.80;86.80
23301;DHT22;11819;51.394;12.340;2022-11-13T12:34:51;8.80;86.80
23301;DHT22;11819;51.394;12.340;2022-11-13T12:43:35;8.80;86.70
23301;DHT22;11819;51.394;12.340;2022-11-13T12:46:20;8.90;86.80
23301;DHT22;11819;51.394;12.340;2022-11-13T12:52:18;8.90;86.60
23301;DHT22;11819;51.394;12.340;2022-11-13T12:55:24;8.90;86.60
23301;DHT22;11819;51.394;12.340;2022-11-13T12:58:19;8.90;86.50
23301;DHT22;11819;51.394;12.340;2022-11-13T13:07:35;8.90;86.40
23301;DHT22;11819;51.394;12.340;2022-11-13T13:10:28;8.90;86.30
23301;DHT22;11819;51.394;12.340;2022-11-13T13:16:41;8.90;86.50
23301;DHT22;11819;51.394;12.340;2022-11-13T13:19:30;9.10;88.90
23301;DHT22;11819;51.394;12.340;2022-11-13T13:22:33;9.60;90.10
23301;DHT22;11819;51.394;12.340;2022-11-13T13:25:32;10.20;90.40
23301;DHT22;11819;51.394;12.340;2022-11-13T13:28:19;10.70;90.10
23301;DHT22;11819;51.394;12.340;2022-11-13T13:31:37;11.20;89.40
23301;DHT22;11819;51.394;12.340;2022-11-13T13:34:41;11.60;88.40
23301;DHT22;11819;51.394;12.340;2022-11-13T13:38:31;11.80;86.40
23301;DHT22;11819;51.394;12.340;2022-11-13T13:41:01;11.80;84.40
23301;DHT22;11819;51.394;12.340;2022-11-13T13:43:52;11.50;82.70
23301;DHT22;11819;51.394;12.340;2022-11-13T13:46:38;11.40;82.00
23301;DHT22;11819;51.394;12.340;2022-11-13T13:49:23;11.20;81.80
23301;DHT22;11819;51.394;12.340;2022-11-13T13:52:13;11.00;81.80
23301;DHT22;11819;51.394;12.340;2022-11-13T13:55:00;10.90;81.80
23301;DHT22;11819;51.394;12.340;2022-11-13T13:57:46;10.80;81.60
23301;DHT22;11819;51.394;12.340;2022-11-13T14:00:31;10.70;81.40
23301;DHT22;11819;51.394;12.340;2022-11-13T14:03:19;10.60;81.30
23301;DHT22;11819;51.394;12.340;2022-11-13T14:06:19;10.50;81.50
23301;DHT22;11819;51.394;12.340;2022-11-13T14:09:08;10.40;81.70
23301;DHT22;11819;51.394;12.340;2022-11-13T14:12:04;10.40;82.10
23301;DHT22;11819;51.394;12.340;2022-11-13T14:14:49;10.40;82.00
23301;DHT22;11819;51.394;12.340;2022-11-13T14:17:33;10.40;82.00
23301;DHT22;11819;51.394;12.340;2022-11-13T14:20:18;10.50;82.90
23301;DHT22;11819;51.394;12.340;2022-11-13T14:23:05;10.80;83.90
23301;DHT22;11819;51.394;12.340;2022-11-13T14:25:50;11.10;84.50
23301;DHT22;11819;51.394;12.340;2022-11-13T14:28:43;11.40;83.50
23301;DHT22;11819;51.394;12.340;2022-11-13T14:31:32;11.30;81.70
23301;DHT22;11819;51.394;12.340;2022-11-13T14:34:19;11.20;80.70
23301;DHT22;11819;51.394;12.340;2022-11-13T14:40:28;10.70;80.00
23301;DHT22;11819;51.394;12.340;2022-11-13T14:43:19;10.50;80.00
23301;DHT22;11819;51.394;12.340;2022-11-13T14:46:26;10.30;80.10
23301;DHT22;11819;51.394;12.340;2022-11-13T14:49:13;10.10;80.40
23301;DHT22;11819;51.394;12.340;2022-11-13T14:52:25;9.90;80.70
23301;DHT22;11819;51.394;12.340;2022-11-13T14:55:28;9.80;81.00
23301;DHT22;11819;51.394;12.340;2022-11-13T14:58:13;9.60;81.30
23301;DHT22;11819;51.394;12.340;2022-11-13T15:01:23;9.60;81.60
23301;DHT22;11819;51.394;12.340;2022-11-13T15:04:07;9.50;81.70
23301;DHT22;11819;51.394;12.340;2022-11-13T15:06:57;9.40;82.90
23301;DHT22;11819;51.394;12.340;2022-11-13T15:09:42;9.30;82.10
23301;DHT22;11819;51.394;12.340;2022-11-13T15:12:26;9.30;82.40
23301;DHT22;11819;51.394;12.340;2022-11-13T15:15:22;9.20;82.40
23301;DHT22;11819;51.394;12.340;2022-11-13T15:18:18;9.10;82.50
23301;DHT22;11819;51.394;12.340;2022-11-13T15:21:02;9.10;82.70
23301;DHT22;11819;51.394;12.340;2022-11-13T15:23:46;9.00;82.80
23301;DHT22;11819;51.394;12.340;2022-11-13T15:26:30;8.90;82.90
23301;DHT22;11819;51.394;12.340;2022-11-13T15:29:14;8.80;83.10
23301;DHT22;11819;51.394;12.340;2022-11-13T15:32:00;8.80;83.40
23301;DHT22;11819;51.394;12.340;2022-11-13T15:34:45;8.80;83.60
23301;DHT22;11819;51.394;12.340;2022-11-13T15:37:29;8.80;83.90
23301;DHT22;11819;51.394;12.340;2022-11-13T15:40:14;8.70;83.90
23301;DHT22;11819;51.394;12.340;2022-11-13T15:43:00;8.80;84.10
23301;DHT22;11819;51.394;12.340;2022-11-13T15:45:45;8.80;84.30
23301;DHT22;11819;51.394;12.340;2022-11-13T15:48:29;8.80;84.40
23301;DHT22;11819;51.394;12.340;2022-11-13T15:51:20;8.70;84.50
23301;DHT22;11819;51.394;12.340;2022-11-13T15:54:17;8.70;84.50
23301;DHT22;11819;51.394;12.340;2022-11-13T15:57:03;8.60;84.60
23301;DHT22;11819;51.394;12.340;2022-11-13T15:59:47;8.60;84.70
23301;DHT22;11819;51.394;12.340;2022-11-13T16:02:31;8.50;84.80
23301;DHT22;11819;51.394;12.340;2022-11-13T16:05:17;8.40;84.90
23301;DHT22;11819;51.394;12.340;2022-11-13T16:08:01;8.40;85.00
23301;DHT22;11819;51.394;12.340;2022-11-13T16:10:47;8.40;85.10
23301;DHT22;11819;51.394;12.340;2022-11-13T16:13:31;8.30;85.20
23301;DHT22;11819;51.394;12.340;2022-11-13T16:16:24;8.30;85.20
23301;DHT22;11819;51.394;12.340;2022-11-13T16:19:18;8.20;85.20
23301;DHT22;11819;51.394;12.340;2022-11-13T16:22:18;8.20;85.30
23301;DHT22;11819;51.394;12.340;2022-11-13T16:25:03;8.20;85.40
23301;DHT22;11819;51.394;12.340;2022-11-13T16:27:47;8.10;85.40
23301;DHT22;11819;51.394;12.340;2022-11-13T16:30:31;8.10;85.50
23301;DHT22;11819;51.394;12.340;2022-11-13T16:33:15;8.00;85.50
23301;DHT22;11819;51.394;12.340;2022-11-13T16:36:00;8.00;85.60
23301;DHT22;11819;51.394;12.340;2022-11-13T16:38:44;7.90;85.70
23301;DHT22;11819;51.394;12.340;2022-11-13T16:41:30;7.90;85.70
23301;DHT22;11819;51.394;12.340;2022-11-13T16:44:15;7.90;85.90
23301;DHT22;11819;51.394;12.340;2022-11-13T16:46:59;7.80;85.90
23301;DHT22;11819;51.394;12.340;2022-11-13T16:49:43;7.80;86.00
23301;DHT22;11819;51.394;12.340;2022-11-13T16:52:27;7.90;86.10
23301;DHT22;11819;51.394;12.340;2022-11-13T16:55:15;7.90;86.30
23301;DHT22;11819;51.394;12.340;2022-11-13T16:57:59;7.90;86.40
23301;DHT22;11819;51.394;12.340;2022-11-13T17:00:44;7.90;86.50
23301;DHT22;11819;51.394;12.340;2022-11-13T17:03:28;8.00;86.70
23301;DHT22;11819;51.394;12.340;2022-11-13T17:06:34;8.00;86.70
23301;DHT22;11819;51.394;12.340;2022-11-13T17:09:18;8.10;86.90
23301;DHT22;11819;51.394;12.340;2022-11-13T17:12:03;8.10;86.90
23301;DHT22;11819;51.394;12.340;2022-11-13T17:14:47;8.20;86.90
23301;DHT22;11819;51.394;12.340;2022-11-13T17:17:31;8.20;86.90
23301;DHT22;11819;51.394;12.340;2022-11-13T17:20:16;8.20;87.00
23301;DHT22;11819;51.394;12.340;2022-11-13T17:23:02;8.20;87.00
23301;DHT22;11819;51.394;12.340;2022-11-13T17:25:46;8.30;87.20
23301;DHT22;11819;51.394;12.340;2022-11-13T17:28:31;8.30;87.20
23301;DHT22;11819;51.394;12.340;2022-11-13T17:31:18;8.40;87.30
23301;DHT22;11819;51.394;12.340;2022-11-13T17:34:03;8.50;87.10
23301;DHT22;11819;51.394;12.340;2022-11-13T17:36:48;8.50;87.00
23301;DHT22;11819;51.394;12.340;2022-11-13T17:39:32;8.50;86.90
23301;DHT22;11819;51.394;12.340;2022-11-13T17:42:17;8.60;86.90
23301;DHT22;11819;51.394;12.340;2022-11-13T17:45:01;8.60;87.00
23301;DHT22;11819;51.394;12.340;2022-11-13T17:47:46;8.60;86.90
23301;DHT22;11819;51.394;12.340;2022-11-13T17:50:30;8.50;86.80
23301;DHT22;11819;51.394;12.340;2022-11-13T17:53:14;8.60;86.90
23301;DHT22;11819;51.394;12.340;2022-11-13T17:56:00;8.50;86.80
23301;DHT22;11819;51.394;12.340;2022-11-13T17:58:48;8.50;86.80
23301;DHT22;11819;51.394;12.340;2022-11-13T18:01:32;8.50;87.00
23301;DHT22;11819;51.394;12.340;2022-11-13T18:04:16;8.40;86.90
23301;DHT22;11819;51.394;12.340;2022-11-13T18:07:01;8.40;87.00
23301;DHT22;11819;51.394;12.340;2022-11-13T18:09:45;8.40;87.10
23301;DHT22;11819;51.394;12.340;2022-11-13T18:12:29;8.40;87.10
23301;DHT22;11819;51.394;12.340;2022-11-13T18:15:14;8.40;87.00
23301;DHT22;11819;51.394;12.340;2022-11-13T18:17:58;8.40;87.00
23301;DHT22;11819;51.394;12.340;2022-11-13T18:20:43;8.30;87.10
23301;DHT22;11819;51.394;12.340;2022-11-13T18:23:27;8.30;87.10
23301;DHT22;11819;51.394;12.340;2022-11-13T18:26:15;8.30;87.10
23301;DHT22;11819;51.394;12.340;2022-11-13T18:29:00;8.20;87.00
23301;DHT22;11819;51.394;12.340;2022-11-13T18:31:44;8.20;87.10
23301;DHT22;11819;51.394;12.340;2022-11-13T18:34:30;8.20;87.20
23301;DHT22;11819;51.394;12.340;2022-11-13T18:37:15;8.10;87.30
23301;DHT22;11819;51.394;12.340;2022-11-13T18:39:59;8.10;87.40
23301;DHT22;11819;51.394;12.340;2022-11-13T18:42:44;8.10;87.40
23301;DHT22;11819;51.394;12.340;2022-11-13T18:45:28;8.10;87.40
23301;DHT22;11819;51.394;12.340;2022-11-13T18:48:13;8.10;87.50